DAL2585 KSMF-KSLC
Flight info
| Callsign | DAL2585 |
|---|---|
| Flight time | 1h 20m |
| Altitude | 35000 |
| Route | SCTWN4 MACUS Q124 SLOWN FLECC YUTES2 |
| Aircraft | A321/M-SDE3FGHIRWY/LB1 |
Departure
| Time | 2026-05-07 09:35 |
|---|---|
| Airport | Sacramento International Airport (KSMF) |
Arrival
| Time | 2026-05-07 10:55 |
|---|---|
| Airport | Salt Lake City International Airport (KSLC) |
| Time | Latitude | Longitude | Altitude | Speed | Heading |
|---|---|---|---|---|---|
| 2026-05-07 09:04 | 38.69251 | -121.58606 | 32 ft | 0 kts | 322° |
| 2026-05-07 09:27 | 38.69236 | -121.58591 | 31 ft | 4 kts | 323° |
| 2026-05-07 09:27 | 38.69214 | -121.58570 | 32 ft | 4 kts | 320° |
| 2026-05-07 09:27 | 38.69200 | -121.58520 | 29 ft | 4 kts | 234° |
| 2026-05-07 09:28 | 38.69212 | -121.58505 | 30 ft | 4 kts | 200° |
| 2026-05-07 09:28 | 38.69238 | -121.58501 | 31 ft | 4 kts | 179° |
| 2026-05-07 09:28 | 38.69247 | -121.58501 | 32 ft | 0 kts | 181° |
| 2026-05-07 09:30 | 38.69242 | -121.58501 | 31 ft | 4 kts | 181° |
| 2026-05-07 09:30 | 38.69193 | -121.58458 | 32 ft | 15 kts | 112° |
| 2026-05-07 09:30 | 38.69216 | -121.58297 | 31 ft | 21 kts | 31° |
| 2026-05-07 09:31 | 38.69369 | -121.58298 | 30 ft | 26 kts | 1° |
| 2026-05-07 09:31 | 38.69584 | -121.58290 | 29 ft | 37 kts | 1° |
| 2026-05-07 09:31 | 38.69861 | -121.58284 | 34 ft | 40 kts | 0° |
| 2026-05-07 09:31 | 38.70135 | -121.58281 | 37 ft | 38 kts | 1° |
| 2026-05-07 09:32 | 38.70393 | -121.58278 | 37 ft | 37 kts | 0° |
| 2026-05-07 09:32 | 38.70626 | -121.58274 | 36 ft | 21 kts | 1° |
| 2026-05-07 09:32 | 38.70704 | -121.58161 | 35 ft | 18 kts | 89° |
| 2026-05-07 09:32 | 38.70684 | -121.58020 | 35 ft | 10 kts | 136° |
| 2026-05-07 09:33 | 38.70664 | -121.58009 | 35 ft | 2 kts | 163° |
| 2026-05-07 09:33 | 38.70651 | -121.58008 | 35 ft | 2 kts | 178° |
| 2026-05-07 09:33 | 38.70634 | -121.58008 | 35 ft | 2 kts | 179° |
| 2026-05-07 09:33 | 38.70633 | -121.58008 | 35 ft | 0 kts | 179° |
| 2026-05-07 09:34 | 38.70592 | -121.58008 | 34 ft | 27 kts | 180° |
| 2026-05-07 09:34 | 38.70143 | -121.58017 | 34 ft | 98 kts | 181° |
| 2026-05-07 09:35 | 38.69265 | -121.58032 | 38 ft | 151 kts | 180° |
| 2026-05-07 09:35 | 38.68170 | -121.58046 | 534 ft | 157 kts | 179° |
| 2026-05-07 09:35 | 38.67131 | -121.57686 | 1188 ft | 160 kts | 145° |
| 2026-05-07 09:35 | 38.66502 | -121.56508 | 1765 ft | 166 kts | 113° |
| 2026-05-07 09:36 | 38.66065 | -121.55048 | 2091 ft | 185 kts | 113° |
| 2026-05-07 09:36 | 38.65575 | -121.53419 | 2321 ft | 207 kts | 113° |
| 2026-05-07 09:36 | 38.65033 | -121.51625 | 2540 ft | 222 kts | 112° |
| 2026-05-07 09:36 | 38.64470 | -121.49759 | 2953 ft | 227 kts | 112° |
| 2026-05-07 09:37 | 38.63900 | -121.47878 | 3311 ft | 235 kts | 111° |
| 2026-05-07 09:37 | 38.63280 | -121.45788 | 3475 ft | 262 kts | 106° |
| 2026-05-07 09:37 | 38.63109 | -121.43462 | 4073 ft | 270 kts | 86° |
| 2026-05-07 09:37 | 38.63181 | -121.41048 | 4836 ft | 274 kts | 86° |
| 2026-05-07 09:38 | 38.63250 | -121.38588 | 5535 ft | 278 kts | 86° |
| 2026-05-07 09:38 | 38.63317 | -121.36092 | 6215 ft | 283 kts | 86° |
| 2026-05-07 09:38 | 38.63383 | -121.33561 | 6874 ft | 287 kts | 86° |
| 2026-05-07 09:38 | 38.63449 | -121.31021 | 7553 ft | 289 kts | 87° |
| 2026-05-07 09:39 | 38.63514 | -121.28448 | 8252 ft | 291 kts | 87° |
| 2026-05-07 09:39 | 38.63581 | -121.25851 | 8968 ft | 293 kts | 88° |
| 2026-05-07 09:39 | 38.63650 | -121.23237 | 9669 ft | 295 kts | 88° |
| 2026-05-07 09:39 | 38.63717 | -121.20608 | 10288 ft | 301 kts | 89° |
| 2026-05-07 09:40 | 38.63784 | -121.17835 | 10424 ft | 323 kts | 88° |
| 2026-05-07 09:40 | 38.63854 | -121.14857 | 10545 ft | 344 kts | 89° |
| 2026-05-07 09:40 | 38.63927 | -121.11725 | 10853 ft | 357 kts | 89° |
| 2026-05-07 09:40 | 38.64001 | -121.08521 | 11386 ft | 362 kts | 88° |
| 2026-05-07 09:41 | 38.64075 | -121.05323 | 11949 ft | 366 kts | 88° |
| 2026-05-07 09:41 | 38.64151 | -121.02049 | 12545 ft | 369 kts | 88° |
| 2026-05-07 09:41 | 38.64229 | -120.98699 | 13168 ft | 373 kts | 88° |
| 2026-05-07 09:41 | 38.64307 | -120.95378 | 13794 ft | 376 kts | 87° |
| 2026-05-07 09:42 | 38.64384 | -120.92015 | 14339 ft | 379 kts | 87° |
| 2026-05-07 09:42 | 38.64462 | -120.88661 | 14885 ft | 382 kts | 87° |
| 2026-05-07 09:42 | 38.64542 | -120.85232 | 15441 ft | 385 kts | 88° |
| 2026-05-07 09:42 | 38.64617 | -120.81794 | 15997 ft | 387 kts | 87° |
| 2026-05-07 09:43 | 38.64691 | -120.78338 | 16545 ft | 390 kts | 87° |
| 2026-05-07 09:43 | 38.64857 | -120.74865 | 17074 ft | 392 kts | 81° |
| 2026-05-07 09:43 | 38.65489 | -120.71507 | 17591 ft | 393 kts | 69° |
| 2026-05-07 09:43 | 38.66630 | -120.68330 | 18099 ft | 394 kts | 58° |
| 2026-05-07 09:44 | 38.68233 | -120.65486 | 18627 ft | 395 kts | 48° |
| 2026-05-07 09:44 | 38.70029 | -120.62809 | 19066 ft | 397 kts | 48° |
| 2026-05-07 09:44 | 38.71839 | -120.60102 | 19513 ft | 400 kts | 48° |
| 2026-05-07 09:44 | 38.73650 | -120.57383 | 19953 ft | 402 kts | 49° |
| 2026-05-07 09:45 | 38.75467 | -120.54648 | 20375 ft | 404 kts | 49° |
| 2026-05-07 09:45 | 38.77295 | -120.51894 | 20805 ft | 407 kts | 49° |
| 2026-05-07 09:45 | 38.79111 | -120.49159 | 21238 ft | 409 kts | 48° |
| 2026-05-07 09:45 | 38.80960 | -120.46370 | 21666 ft | 411 kts | 49° |
| 2026-05-07 09:46 | 38.82841 | -120.43526 | 22074 ft | 414 kts | 48° |
| 2026-05-07 09:46 | 38.84683 | -120.40739 | 22482 ft | 416 kts | 48° |
| 2026-05-07 09:46 | 38.86559 | -120.37896 | 22928 ft | 418 kts | 48° |
| 2026-05-07 09:46 | 38.88444 | -120.35040 | 23380 ft | 420 kts | 48° |
| 2026-05-07 09:47 | 38.90339 | -120.32167 | 23757 ft | 423 kts | 48° |
| 2026-05-07 09:47 | 38.92249 | -120.29271 | 24100 ft | 425 kts | 48° |
| 2026-05-07 09:47 | 38.94162 | -120.26368 | 24453 ft | 426 kts | 48° |
| 2026-05-07 09:47 | 38.96087 | -120.23444 | 24802 ft | 428 kts | 48° |
| 2026-05-07 09:48 | 38.98018 | -120.20510 | 25147 ft | 430 kts | 48° |
| 2026-05-07 09:48 | 38.99933 | -120.17599 | 25490 ft | 432 kts | 48° |
| 2026-05-07 09:48 | 39.01875 | -120.14637 | 25837 ft | 434 kts | 48° |
| 2026-05-07 09:48 | 39.03824 | -120.11662 | 26188 ft | 435 kts | 49° |
| 2026-05-07 09:49 | 39.05781 | -120.08672 | 26528 ft | 437 kts | 48° |
| 2026-05-07 09:49 | 39.07742 | -120.05672 | 26854 ft | 439 kts | 48° |
| 2026-05-07 09:49 | 39.09716 | -120.02653 | 27175 ft | 441 kts | 48° |
| 2026-05-07 09:49 | 39.11696 | -119.99622 | 27463 ft | 442 kts | 48° |
| 2026-05-07 09:50 | 39.13681 | -119.96586 | 27761 ft | 444 kts | 48° |
| 2026-05-07 09:50 | 39.15676 | -119.93530 | 28047 ft | 446 kts | 48° |
| 2026-05-07 09:50 | 39.17672 | -119.90468 | 28359 ft | 448 kts | 48° |
| 2026-05-07 09:50 | 39.19682 | -119.87383 | 28642 ft | 450 kts | 48° |
| 2026-05-07 09:51 | 39.21692 | -119.84289 | 28939 ft | 451 kts | 48° |
| 2026-05-07 09:51 | 39.23714 | -119.81171 | 29238 ft | 453 kts | 48° |
| 2026-05-07 09:51 | 39.25739 | -119.78051 | 29522 ft | 455 kts | 48° |
| 2026-05-07 09:51 | 39.27772 | -119.74912 | 29829 ft | 455 kts | 48° |
| 2026-05-07 09:52 | 39.29829 | -119.71732 | 30208 ft | 454 kts | 48° |
| 2026-05-07 09:52 | 39.31852 | -119.68601 | 30535 ft | 453 kts | 48° |
| 2026-05-07 09:52 | 39.33868 | -119.65478 | 30861 ft | 452 kts | 48° |
| 2026-05-07 09:52 | 39.35873 | -119.62369 | 31179 ft | 451 kts | 49° |
| 2026-05-07 09:53 | 39.37888 | -119.59241 | 31500 ft | 449 kts | 49° |
| 2026-05-07 09:53 | 39.39890 | -119.56131 | 31838 ft | 448 kts | 49° |
| 2026-05-07 09:53 | 39.41876 | -119.53046 | 32187 ft | 447 kts | 49° |
| 2026-05-07 09:53 | 39.43863 | -119.49963 | 32529 ft | 446 kts | 48° |
| 2026-05-07 09:54 | 39.45851 | -119.46880 | 32851 ft | 445 kts | 49° |
| 2026-05-07 09:54 | 39.47826 | -119.43810 | 33190 ft | 443 kts | 49° |
| 2026-05-07 09:54 | 39.49801 | -119.40735 | 33527 ft | 442 kts | 49° |
| 2026-05-07 09:54 | 39.51741 | -119.37709 | 33857 ft | 441 kts | 49° |
| 2026-05-07 09:55 | 39.53697 | -119.34652 | 34130 ft | 441 kts | 49° |
| 2026-05-07 09:55 | 39.55652 | -119.31593 | 34375 ft | 440 kts | 49° |
| 2026-05-07 09:55 | 39.57600 | -119.28541 | 34639 ft | 439 kts | 49° |
| 2026-05-07 09:55 | 39.59544 | -119.25487 | 34909 ft | 439 kts | 49° |
| 2026-05-07 09:56 | 39.61492 | -119.22424 | 35045 ft | 438 kts | 48° |
| 2026-05-07 09:56 | 39.65354 | -119.16356 | 35072 ft | 434 kts | 48° |
| 2026-05-07 09:57 | 39.69188 | -119.10338 | 35072 ft | 430 kts | 48° |
| 2026-05-07 09:57 | 39.72972 | -119.04371 | 35070 ft | 430 kts | 49° |
| 2026-05-07 09:58 | 39.76766 | -118.98363 | 35062 ft | 429 kts | 49° |
| 2026-05-07 09:58 | 39.80566 | -118.92351 | 35073 ft | 429 kts | 48° |
| 2026-05-07 09:59 | 39.84334 | -118.86378 | 35088 ft | 429 kts | 48° |
| 2026-05-07 09:59 | 39.88071 | -118.80306 | 35106 ft | 431 kts | 53° |
| 2026-05-07 10:00 | 39.91009 | -118.73454 | 35114 ft | 433 kts | 59° |
| 2026-05-07 10:00 | 39.93838 | -118.66518 | 35129 ft | 433 kts | 59° |
| 2026-05-07 10:01 | 39.96671 | -118.59575 | 35160 ft | 433 kts | 59° |
| 2026-05-07 10:01 | 39.99493 | -118.52660 | 35151 ft | 433 kts | 59° |
| 2026-05-07 10:02 | 40.02311 | -118.45701 | 35156 ft | 433 kts | 59° |
| 2026-05-07 10:02 | 40.05121 | -118.38732 | 35138 ft | 433 kts | 59° |
| 2026-05-07 10:03 | 40.07932 | -118.31769 | 35088 ft | 433 kts | 59° |
| 2026-05-07 10:03 | 40.10721 | -118.24847 | 35093 ft | 432 kts | 59° |
| 2026-05-07 10:04 | 40.13506 | -118.17915 | 35097 ft | 430 kts | 59° |
| 2026-05-07 10:04 | 40.15830 | -118.12111 | 35090 ft | 429 kts | 59° |
| 2026-05-07 10:05 | 40.18577 | -118.05232 | 35101 ft | 429 kts | 58° |
| 2026-05-07 10:05 | 40.20875 | -117.98005 | 35096 ft | 433 kts | 69° |
| 2026-05-07 10:06 | 40.22634 | -117.90457 | 35096 ft | 433 kts | 69° |
| 2026-05-07 10:06 | 40.24391 | -117.82906 | 35089 ft | 433 kts | 69° |
| 2026-05-07 10:07 | 40.26148 | -117.75355 | 35086 ft | 433 kts | 69° |
| 2026-05-07 10:07 | 40.27893 | -117.67850 | 35085 ft | 433 kts | 69° |
| 2026-05-07 10:08 | 40.29644 | -117.60302 | 35081 ft | 433 kts | 69° |
| 2026-05-07 10:08 | 40.31386 | -117.52721 | 35082 ft | 433 kts | 69° |
| 2026-05-07 10:09 | 40.33112 | -117.45201 | 35093 ft | 433 kts | 69° |
| 2026-05-07 10:09 | 40.34847 | -117.37635 | 35086 ft | 433 kts | 69° |
| 2026-05-07 10:10 | 40.36569 | -117.30085 | 35081 ft | 433 kts | 69° |
| 2026-05-07 10:10 | 40.38294 | -117.22503 | 35080 ft | 433 kts | 69° |
| 2026-05-07 10:11 | 40.40013 | -117.14915 | 35115 ft | 433 kts | 69° |
| 2026-05-07 10:11 | 40.41726 | -117.07334 | 35131 ft | 433 kts | 69° |
| 2026-05-07 10:12 | 40.43435 | -116.99751 | 35144 ft | 433 kts | 69° |
| 2026-05-07 10:12 | 40.45134 | -116.92153 | 35156 ft | 433 kts | 69° |
| 2026-05-07 10:13 | 40.46817 | -116.84607 | 35178 ft | 433 kts | 69° |
| 2026-05-07 10:13 | 40.48515 | -116.76970 | 35167 ft | 433 kts | 69° |
| 2026-05-07 10:14 | 40.50204 | -116.69376 | 35153 ft | 433 kts | 69° |
| 2026-05-07 10:14 | 40.51889 | -116.61771 | 35139 ft | 433 kts | 69° |
| 2026-05-07 10:15 | 40.53555 | -116.54192 | 35133 ft | 434 kts | 69° |
| 2026-05-07 10:15 | 40.55229 | -116.46572 | 35111 ft | 434 kts | 69° |
| 2026-05-07 10:16 | 40.56772 | -116.38877 | 35092 ft | 439 kts | 76° |
| 2026-05-07 10:16 | 40.57535 | -116.30893 | 35097 ft | 440 kts | 78° |
| 2026-05-07 10:17 | 40.58298 | -116.22901 | 35105 ft | 441 kts | 77° |
| 2026-05-07 10:17 | 40.59061 | -116.14907 | 35098 ft | 441 kts | 77° |
| 2026-05-07 10:18 | 40.59818 | -116.06894 | 35100 ft | 442 kts | 77° |
| 2026-05-07 10:18 | 40.60569 | -115.98821 | 35102 ft | 442 kts | 77° |
| 2026-05-07 10:19 | 40.61304 | -115.90806 | 35106 ft | 443 kts | 78° |
| 2026-05-07 10:19 | 40.62038 | -115.82773 | 35116 ft | 443 kts | 78° |
| 2026-05-07 10:20 | 40.62768 | -115.74751 | 35122 ft | 443 kts | 78° |
| 2026-05-07 10:20 | 40.63493 | -115.66691 | 35123 ft | 442 kts | 78° |
| 2026-05-07 10:21 | 40.64216 | -115.58675 | 35131 ft | 443 kts | 78° |
| 2026-05-07 10:21 | 40.64934 | -115.50595 | 35127 ft | 443 kts | 78° |
| 2026-05-07 10:22 | 40.65643 | -115.42531 | 35117 ft | 443 kts | 78° |
| 2026-05-07 10:22 | 40.66338 | -115.34510 | 35110 ft | 443 kts | 78° |
| 2026-05-07 10:23 | 40.67040 | -115.26433 | 35119 ft | 444 kts | 78° |
| 2026-05-07 10:23 | 40.67737 | -115.18349 | 35119 ft | 445 kts | 78° |
| 2026-05-07 10:24 | 40.68426 | -115.10258 | 35111 ft | 445 kts | 78° |
| 2026-05-07 10:24 | 40.69114 | -115.02145 | 35115 ft | 445 kts | 78° |
| 2026-05-07 10:25 | 40.69786 | -114.94017 | 35122 ft | 446 kts | 78° |
| 2026-05-07 10:25 | 40.70401 | -114.85864 | 35121 ft | 448 kts | 81° |
| 2026-05-07 10:26 | 40.70658 | -114.77609 | 35083 ft | 453 kts | 83° |
| 2026-05-07 10:26 | 40.70749 | -114.69267 | 35077 ft | 456 kts | 84° |
| 2026-05-07 10:27 | 40.70887 | -114.60883 | 35079 ft | 458 kts | 83° |
| 2026-05-07 10:27 | 40.71085 | -114.52541 | 35090 ft | 458 kts | 83° |
| 2026-05-07 10:28 | 40.71292 | -114.44153 | 35096 ft | 458 kts | 83° |
| 2026-05-07 10:28 | 40.71483 | -114.35697 | 35132 ft | 459 kts | 83° |
| 2026-05-07 10:29 | 40.71661 | -114.27340 | 35142 ft | 459 kts | 83° |
| 2026-05-07 10:29 | 40.71831 | -114.18928 | 35152 ft | 459 kts | 83° |
| 2026-05-07 10:30 | 40.72075 | -114.06242 | 35159 ft | 462 kts | 83° |
| 2026-05-07 10:30 | 40.72241 | -113.97748 | 35144 ft | 464 kts | 83° |
| 2026-05-07 10:31 | 40.72388 | -113.89234 | 35141 ft | 465 kts | 83° |
| 2026-05-07 10:31 | 40.72529 | -113.80761 | 35129 ft | 465 kts | 83° |
| 2026-05-07 10:32 | 40.72653 | -113.72224 | 35129 ft | 466 kts | 84° |
| 2026-05-07 10:32 | 40.72658 | -113.63658 | 35102 ft | 467 kts | 85° |
| 2026-05-07 10:33 | 40.72607 | -113.55083 | 35076 ft | 467 kts | 85° |
| 2026-05-07 10:33 | 40.72569 | -113.46512 | 35072 ft | 467 kts | 85° |
| 2026-05-07 10:34 | 40.72551 | -113.37888 | 35085 ft | 467 kts | 84° |
| 2026-05-07 10:34 | 40.72525 | -113.29311 | 35077 ft | 468 kts | 85° |
| 2026-05-07 10:35 | 40.72487 | -113.20737 | 35061 ft | 468 kts | 85° |
| 2026-05-07 10:35 | 40.72444 | -113.12150 | 35060 ft | 468 kts | 85° |
| 2026-05-07 10:36 | 40.72387 | -113.03566 | 35083 ft | 469 kts | 85° |
| 2026-05-07 10:36 | 40.72324 | -112.94962 | 35063 ft | 469 kts | 85° |
| 2026-05-07 10:37 | 40.72264 | -112.86418 | 35067 ft | 469 kts | 85° |
| 2026-05-07 10:37 | 40.72199 | -112.77814 | 35077 ft | 469 kts | 85° |
| 2026-05-07 10:38 | 40.72114 | -112.69191 | 35068 ft | 470 kts | 85° |
| 2026-05-07 10:38 | 40.72021 | -112.60564 | 35068 ft | 470 kts | 85° |
| 2026-05-07 10:39 | 40.71843 | -112.51964 | 35060 ft | 475 kts | 91° |
| 2026-05-07 10:39 | 40.70981 | -112.43324 | 35146 ft | 476 kts | 92° |
| 2026-05-07 10:40 | 40.70095 | -112.34669 | 35141 ft | 476 kts | 92° |
| 2026-05-07 10:40 | 40.69267 | -112.26035 | 35049 ft | 463 kts | 86° |
| 2026-05-07 10:41 | 40.69382 | -112.21879 | 33999 ft | 452 kts | 79° |
| 2026-05-07 10:41 | 40.69926 | -112.17854 | 32822 ft | 435 kts | 62° |
| 2026-05-07 10:41 | 40.71341 | -112.14464 | 31801 ft | 411 kts | 45° |
| 2026-05-07 10:41 | 40.73324 | -112.11951 | 30714 ft | 382 kts | 27° |
| 2026-05-07 10:42 | 40.75591 | -112.10358 | 29432 ft | 361 kts | 13° |
| 2026-05-07 10:42 | 40.77998 | -112.09664 | 27894 ft | 351 kts | 358° |
| 2026-05-07 10:42 | 40.80409 | -112.09798 | 26567 ft | 344 kts | 350° |
| 2026-05-07 10:42 | 40.82014 | -112.09995 | 25644 ft | 341 kts | 350° |
| 2026-05-07 10:43 | 40.84355 | -112.10276 | 24384 ft | 335 kts | 351° |
| 2026-05-07 10:43 | 40.86614 | -112.10541 | 23560 ft | 328 kts | 350° |
| 2026-05-07 10:43 | 40.88879 | -112.10814 | 22612 ft | 326 kts | 350° |
| 2026-05-07 10:43 | 40.91129 | -112.11086 | 21716 ft | 323 kts | 350° |
| 2026-05-07 10:44 | 40.93349 | -112.11343 | 20716 ft | 315 kts | 351° |
| 2026-05-07 10:44 | 40.95514 | -112.11588 | 19496 ft | 309 kts | 351° |
| 2026-05-07 10:44 | 40.97643 | -112.11835 | 18337 ft | 304 kts | 351° |
| 2026-05-07 10:44 | 40.99734 | -112.12083 | 17057 ft | 300 kts | 351° |
| 2026-05-07 10:45 | 41.01802 | -112.12331 | 15856 ft | 295 kts | 351° |
| 2026-05-07 10:45 | 41.03841 | -112.12495 | 14699 ft | 294 kts | 1° |
| 2026-05-07 10:45 | 41.05804 | -112.11733 | 13622 ft | 299 kts | 25° |
| 2026-05-07 10:45 | 41.07371 | -112.09893 | 12445 ft | 307 kts | 51° |
| 2026-05-07 10:46 | 41.08230 | -112.07307 | 11310 ft | 312 kts | 77° |
| 2026-05-07 10:46 | 41.08203 | -112.04447 | 10232 ft | 311 kts | 104° |
| 2026-05-07 10:46 | 41.07290 | -112.01894 | 9132 ft | 304 kts | 131° |
| 2026-05-07 10:46 | 41.05676 | -112.00116 | 8188 ft | 300 kts | 155° |
| 2026-05-07 10:47 | 41.03707 | -111.99570 | 7548 ft | 286 kts | 188° |
| 2026-05-07 10:47 | 41.01821 | -112.00134 | 6831 ft | 279 kts | 194° |
| 2026-05-07 10:47 | 41.00034 | -112.01080 | 6237 ft | 279 kts | 213° |
| 2026-05-07 10:47 | 40.98738 | -112.03006 | 6062 ft | 284 kts | 234° |
| 2026-05-07 10:48 | 40.97770 | -112.05310 | 6026 ft | 290 kts | 245° |
| 2026-05-07 10:48 | 40.97407 | -112.07948 | 6031 ft | 295 kts | 271° |
| 2026-05-07 10:48 | 40.97948 | -112.10526 | 6021 ft | 292 kts | 298° |
| 2026-05-07 10:48 | 40.99296 | -112.12536 | 6020 ft | 297 kts | 325° |
| 2026-05-07 10:49 | 41.01159 | -112.13687 | 6015 ft | 294 kts | 347° |
| 2026-05-07 10:49 | 41.03175 | -112.13706 | 6026 ft | 291 kts | 14° |
| 2026-05-07 10:49 | 41.04978 | -112.12554 | 6056 ft | 289 kts | 42° |
| 2026-05-07 10:49 | 41.06187 | -112.10499 | 6039 ft | 281 kts | 71° |
| 2026-05-07 10:50 | 41.06501 | -112.07985 | 6424 ft | 278 kts | 100° |
| 2026-05-07 10:50 | 41.05884 | -112.05600 | 7267 ft | 273 kts | 121° |
| 2026-05-07 10:50 | 41.04667 | -112.03652 | 7281 ft | 272 kts | 144° |
| 2026-05-07 10:50 | 41.03012 | -112.02587 | 7163 ft | 262 kts | 169° |
| 2026-05-07 10:51 | 41.01207 | -112.02304 | 7077 ft | 260 kts | 176° |
| 2026-05-07 10:51 | 40.99409 | -112.02104 | 7043 ft | 256 kts | 176° |
| 2026-05-07 10:51 | 40.97692 | -112.01905 | 7031 ft | 239 kts | 175° |
| 2026-05-07 10:51 | 40.96082 | -112.01716 | 7030 ft | 228 kts | 175° |
| 2026-05-07 10:52 | 40.94552 | -112.01537 | 6954 ft | 215 kts | 175° |
| 2026-05-07 10:52 | 40.93088 | -112.01366 | 6703 ft | 211 kts | 174° |
| 2026-05-07 10:52 | 40.91636 | -112.01196 | 6429 ft | 207 kts | 174° |
| 2026-05-07 10:52 | 40.90228 | -112.01033 | 6157 ft | 198 kts | 173° |
| 2026-05-07 10:53 | 40.88887 | -112.00877 | 5936 ft | 186 kts | 171° |
| 2026-05-07 10:53 | 40.87661 | -112.00735 | 5696 ft | 168 kts | 173° |
| 2026-05-07 10:53 | 40.86551 | -112.00605 | 5464 ft | 155 kts | 173° |
| 2026-05-07 10:53 | 40.85488 | -112.00480 | 5254 ft | 152 kts | 173° |
| 2026-05-07 10:54 | 40.84441 | -112.00357 | 5046 ft | 149 kts | 171° |
| 2026-05-07 10:54 | 40.83414 | -112.00225 | 4762 ft | 150 kts | 172° |
| 2026-05-07 10:54 | 40.82388 | -112.00113 | 4627 ft | 147 kts | 174° |
| 2026-05-07 10:54 | 40.81377 | -111.99998 | 4362 ft | 144 kts | 173° |
| 2026-05-07 10:55 | 40.80408 | -111.99889 | 4234 ft | 137 kts | 171° |
| 2026-05-07 10:55 | 40.79602 | -111.99790 | 4227 ft | 89 kts | 175° |
| 2026-05-07 10:55 | 40.79152 | -111.99738 | 4231 ft | 44 kts | 175° |
| 2026-05-07 10:55 | 40.78945 | -111.99711 | 4236 ft | 23 kts | 165° |
| 2026-05-07 10:56 | 40.78803 | -111.99636 | 4234 ft | 21 kts | 149° |
| 2026-05-07 10:56 | 40.78713 | -111.99530 | 4234 ft | 11 kts | 136° |
| 2026-05-07 10:56 | 40.78701 | -111.99515 | 4234 ft | 0 kts | 137° |
| 2026-05-07 10:57 | 40.78690 | -111.99504 | 4233 ft | 5 kts | 141° |
| 2026-05-07 10:57 | 40.78648 | -111.99438 | 4232 ft | 14 kts | 105° |
| 2026-05-07 10:57 | 40.78651 | -111.99304 | 4233 ft | 13 kts | 86° |
| 2026-05-07 10:58 | 40.78626 | -111.99239 | 4233 ft | 7 kts | 153° |
| 2026-05-07 10:58 | 40.78588 | -111.99221 | 4233 ft | 0 kts | 161° |
| 2026-05-07 10:58 | 40.78585 | -111.99219 | 4233 ft | 2 kts | 161° |
| 2026-05-07 10:58 | 40.78578 | -111.99216 | 4233 ft | 0 kts | 161° |
| 2026-05-07 11:27 | 40.78579 | -111.99217 | 4233 ft | 2 kts | 161° |
| 2026-05-07 11:27 | 40.78603 | -111.99227 | 4232 ft | 4 kts | 164° |
| 2026-05-07 11:27 | 40.78629 | -111.99236 | 4232 ft | 4 kts | 167° |
| 2026-05-07 11:27 | 40.78656 | -111.99243 | 4232 ft | 4 kts | 170° |
| 2026-05-07 11:28 | 40.78683 | -111.99249 | 4231 ft | 4 kts | 173° |
| 2026-05-07 11:28 | 40.78710 | -111.99253 | 4231 ft | 4 kts | 175° |
| 2026-05-07 11:28 | 40.78737 | -111.99255 | 4232 ft | 4 kts | 176° |
| 2026-05-07 11:28 | 40.78763 | -111.99259 | 4232 ft | 4 kts | 165° |